createdAt,value
2022-10-17T00:03:58.056Z,99530.41
2022-10-17T00:09:02.136Z,99527.91
2022-10-17T00:14:05.061Z,99527.06
2022-10-17T00:19:08.311Z,99528.94
2022-10-17T00:24:12.422Z,99527.47
2022-10-17T00:29:15.102Z,99532.03
2022-10-17T00:34:17.768Z,99540.94
2022-10-17T00:39:22.058Z,99541.34
2022-10-17T00:45:00.968Z,99535.16
2022-10-17T00:50:04.085Z,99534.09
2022-10-17T00:55:11.611Z,99544.88
2022-10-17T01:00:15.720Z,99540.53
2022-10-17T01:05:19.718Z,99529.78
2022-10-17T01:10:24.034Z,99531.63
2022-10-17T01:15:37.243Z,99538.03
2022-10-17T01:21:03.225Z,99539.69
2022-10-17T01:26:15.552Z,99541.78
2022-10-17T01:31:22.991Z,99549.22
2022-10-17T01:36:38.224Z,99545.72
2022-10-17T01:41:43.692Z,99546.53
2022-10-17T01:46:51.076Z,99546.09
2022-10-17T01:51:56.775Z,99522.75
2022-10-17T01:57:00.990Z,99529.16
2022-10-17T02:02:07.227Z,99521.91
2022-10-17T02:07:12.261Z,99519.44
2022-10-17T02:12:46.941Z,99510.31
2022-10-17T02:17:59.072Z,99495.66
2022-10-17T02:23:05.387Z,99492.72
2022-10-17T02:28:17.752Z,99504.53
2022-10-17T02:33:24.678Z,99508.06
2022-10-17T02:38:28.230Z,99509.09
2022-10-17T02:43:31.211Z,99503.09
2022-10-17T02:48:39.588Z,99516.53
2022-10-17T02:53:48.854Z,99516.53
2022-10-17T02:58:56.107Z,99518.19
2022-10-17T03:04:08.350Z,99526.47
2022-10-17T03:09:11.225Z,99522.34
2022-10-17T03:14:13.998Z,99525.84
2022-10-17T03:19:18.786Z,99518.59
2022-10-17T03:24:21.672Z,99517.78
2022-10-17T03:29:24.550Z,99529.78
2022-10-17T03:34:28.734Z,99530.59
2022-10-17T03:39:31.528Z,99524.41
2022-10-17T03:44:34.385Z,99528.94
2022-10-17T03:49:38.509Z,99531.84
2022-10-17T03:54:41.735Z,99532.06
2022-10-17T03:59:44.566Z,99534.31
2022-10-17T04:04:53.655Z,99537.22
2022-10-17T04:09:56.490Z,99541.97
2022-10-17T04:14:59.556Z,99555.41
2022-10-17T04:20:04.200Z,99554.38
2022-10-17T04:25:07.758Z,99551.69
2022-10-17T04:30:14.028Z,99545.69
2022-10-17T04:35:18.754Z,99556.44
2022-10-17T04:40:26.565Z,99559.97
2022-10-17T04:45:29.730Z,99564.50
2022-10-17T04:50:40.234Z,99555.41
2022-10-17T04:56:00.876Z,99572.56
2022-10-17T05:01:08.743Z,99587.06
2022-10-17T05:06:16.829Z,99571.75
2022-10-17T05:11:26.008Z,99562.03
2022-10-17T05:16:29.510Z,99576.50
2022-10-17T05:21:34.183Z,99579.19
2022-10-17T05:26:37.002Z,99567.63
2022-10-17T05:31:39.857Z,99573.00
2022-10-17T05:36:45.267Z,99552.06
2022-10-17T05:41:51.206Z,99582.28
2022-10-17T05:46:54.126Z,99590.13
2022-10-17T05:51:58.942Z,99597.19
2022-10-17T05:57:02.015Z,99594.50
2022-10-17T06:02:07.958Z,99589.13
2022-10-17T06:07:12.459Z,99591.81
2022-10-17T06:12:15.890Z,99587.88
2022-10-17T06:17:19.635Z,99589.75
2022-10-17T06:22:23.831Z,99602.78
2022-10-17T06:27:26.539Z,99622.00
2022-10-17T06:32:29.426Z,99630.72
2022-10-17T06:37:36.622Z,99637.31
2022-10-17T06:42:43.731Z,99632.38
2022-10-17T06:48:03.175Z,99629.91
2022-10-17T06:53:25.873Z,99641.69
2022-10-17T06:58:44.099Z,99641.91
2022-10-17T07:03:59.823Z,99642.97
2022-10-17T07:09:06.842Z,99656.00
2022-10-17T07:14:12.058Z,99666.78
2022-10-17T07:19:14.816Z,99680.66
2022-10-17T07:24:18.916Z,99682.53
2022-10-17T07:29:25.875Z,99678.59
2022-10-17T07:34:34.552Z,99680.22
2022-10-17T07:39:39.962Z,99676.53
2022-10-17T07:44:42.775Z,99681.06
2022-10-17T07:49:45.968Z,99690.59
2022-10-17T07:54:50.372Z,99691.44
2022-10-17T07:59:54.257Z,99686.66
2022-10-17T08:04:56.956Z,99688.91
2022-10-17T08:10:00.987Z,99676.69
2022-10-17T08:15:04.485Z,99687.66
2022-10-17T08:20:07.854Z,99695.13
2022-10-17T08:25:12.199Z,99697.81
2022-10-17T08:30:15.032Z,99699.88
2022-10-17T08:35:18.379Z,99713.56
2022-10-17T08:40:24.964Z,99712.31
2022-10-17T08:45:31.424Z,99722.06
2022-10-17T08:50:37.835Z,99722.69
2022-10-17T08:55:45.900Z,99731.59
2022-10-17T09:00:55.296Z,99738.00
2022-10-17T09:06:07.040Z,99753.34
2022-10-17T09:11:18.482Z,99770.75
2022-10-17T09:16:38.261Z,99755.84
2022-10-17T09:21:45.021Z,99760.38
2022-10-17T09:26:49.096Z,99769.28
2022-10-17T09:32:03.234Z,99765.34
2022-10-17T09:37:12.178Z,99771.38
2022-10-17T09:42:19.254Z,99776.13
2022-10-17T09:47:27.362Z,99785.88
2022-10-17T09:52:32.470Z,99791.88
2022-10-17T09:57:55.429Z,99794.78
2022-10-17T10:03:18.904Z,99795.81
2022-10-17T10:08:31.054Z,99792.06
2022-10-17T10:13:36.057Z,99791.66
2022-10-17T10:18:38.745Z,99811.56
2022-10-17T10:23:42.910Z,99810.50
2022-10-17T10:28:53.209Z,99802.44
2022-10-17T10:33:57.638Z,99808.44
2022-10-17T10:39:03.885Z,99812.19
2022-10-17T10:44:13.552Z,99825.03
2022-10-17T10:49:30.558Z,99832.50
2022-10-17T10:54:36.633Z,99837.66
2022-10-17T10:59:44.272Z,99853.81
2022-10-17T11:04:50.779Z,99861.88
2022-10-17T11:09:57.410Z,99862.75
2022-10-17T11:15:08.741Z,99876.22
2022-10-17T11:20:16.436Z,99864.38
2022-10-17T11:25:30.567Z,99869.78
2022-10-17T11:35:53.603Z,99865.84
2022-10-17T11:40:59.966Z,99874.75
2022-10-17T11:46:08.298Z,99878.06
2022-10-17T11:56:42.713Z,99876.00
2022-10-17T12:01:50.321Z,99874.13
2022-10-17T12:07:03.598Z,99880.97
2022-10-17T12:12:06.452Z,99879.75
2022-10-17T12:17:26.930Z,99877.03
2022-10-17T12:22:29.826Z,99889.31
2022-10-17T12:27:42.339Z,99889.72
2022-10-17T12:33:07.073Z,99892.63
2022-10-17T12:38:24.551Z,99887.84
2022-10-17T12:49:05.965Z,99902.16
2022-10-17T12:54:13.202Z,99901.13
2022-10-17T12:59:18.103Z,99913.53
2022-10-17T13:04:22.347Z,99912.53
2022-10-17T13:09:27.406Z,99921.44
2022-10-17T13:14:30.857Z,99927.47
2022-10-17T13:19:45.537Z,99929.09
2022-10-17T13:24:48.647Z,99938.88
2022-10-17T13:29:51.453Z,99943.22
2022-10-17T13:35:09.779Z,99939.47
2022-10-17T13:40:40.969Z,99954.81
2022-10-17T13:45:41.292Z,99970.16
2022-10-17T13:50:48.787Z,99961.25
2022-10-17T13:56:09.761Z,99969.97
2022-10-17T14:01:21.576Z,99967.88
2022-10-17T14:06:26.294Z,99971.41
2022-10-17T14:11:33.984Z,99970.56
2022-10-17T14:16:39.015Z,99968.50
2022-10-17T14:21:44.753Z,99964.75
2022-10-17T14:26:48.716Z,99965.63
2022-10-17T14:31:53.567Z,99965.63
2022-10-17T14:36:57.957Z,99968.50
2022-10-17T14:42:04.239Z,99978.03
2022-10-17T14:47:31.154Z,99986.31
2022-10-17T14:52:34.308Z,100001.47
2022-10-17T14:57:43.523Z,100008.31
2022-10-17T15:02:46.911Z,100004.34
2022-10-17T15:07:51.026Z,100025.31
2022-10-17T15:12:58.883Z,100032.34
2022-10-17T15:18:08.095Z,100028.84
2022-10-17T15:23:12.108Z,100034.03
2022-10-17T15:28:14.819Z,100028.66
2022-10-17T15:33:17.501Z,100040.25
2022-10-17T15:38:21.547Z,100033.00
2022-10-17T15:43:24.579Z,100033.63
2022-10-17T15:48:30.378Z,100030.72
2022-10-17T15:53:34.498Z,100060.16
2022-10-17T15:58:38.552Z,100076.34
2022-10-17T16:03:41.325Z,100086.94
2022-10-17T16:08:45.377Z,100095.84
2022-10-17T16:13:51.815Z,100102.88
2022-10-17T16:18:54.620Z,100114.06
2022-10-17T16:23:58.844Z,100136.91
2022-10-17T16:29:03.060Z,100134.84
2022-10-17T16:34:06.785Z,100141.06
2022-10-17T16:39:10.989Z,100152.69
2022-10-17T16:44:14.543Z,100155.19
2022-10-17T16:49:18.251Z,100153.50
2022-10-17T16:54:22.500Z,100149.78
2022-10-17T16:59:25.414Z,100141.91
2022-10-17T17:04:28.126Z,100163.47
2022-10-17T17:09:32.175Z,100154.56
2022-10-17T17:14:35.072Z,100166.34
2022-10-17T17:19:37.805Z,100163.25
2022-10-17T17:24:41.969Z,100171.28
2022-10-17T17:29:44.700Z,100169.22
2022-10-17T17:34:47.406Z,100175.22
2022-10-17T17:39:51.412Z,100173.56
2022-10-17T17:44:54.146Z,100178.31
2022-10-17T17:49:56.897Z,100174.16
2022-10-17T17:55:00.987Z,100185.97
2022-10-17T18:00:04.559Z,100179.13
2022-10-17T18:05:08.530Z,100182.66
2022-10-17T18:15:18.430Z,100191.56
2022-10-17T18:20:21.157Z,100189.91
2022-10-17T18:25:25.282Z,100196.94
2022-10-17T18:30:29.934Z,100217.69
2022-10-17T18:35:35.704Z,100218.50
2022-10-17T18:40:39.804Z,100222.25
2022-10-17T18:45:42.516Z,100222.25
2022-10-17T18:50:45.272Z,100218.72
2022-10-17T18:55:49.345Z,100223.28
2022-10-17T19:00:52.407Z,100231.56
2022-10-17T19:05:56.748Z,100238.81
2022-10-17T19:11:07.392Z,100233.63
2022-10-17T19:16:11.636Z,100238.00
2022-10-17T19:21:18.021Z,100251.47
2022-10-17T19:26:27.035Z,100240.22
2022-10-17T19:31:32.048Z,100244.41
2022-10-17T19:36:35.908Z,100240.22
2022-10-17T19:41:40.943Z,100252.69
2022-10-17T19:46:46.596Z,100251.00
2022-10-17T19:51:49.426Z,100255.75
2022-10-17T19:56:53.431Z,100263.00
2022-10-17T20:01:56.181Z,100264.88
2022-10-17T20:07:00.044Z,100256.81
2022-10-17T20:12:04.227Z,100257.00
2022-10-17T20:17:06.957Z,100265.94
2022-10-17T20:22:09.716Z,100261.78
2022-10-17T20:27:13.779Z,100276.06
2022-10-17T20:32:16.574Z,100276.91
2022-10-17T20:37:19.398Z,100280.22
2022-10-17T20:42:23.466Z,100278.34
2022-10-17T20:47:43.390Z,100288.09
2022-10-17T20:52:47.123Z,100285.22
2022-10-17T20:57:53.653Z,100289.78
2022-10-17T21:08:04.162Z,100293.50
2022-10-17T21:13:08.260Z,100290.78
2022-10-17T21:18:11.006Z,100285.41
2022-10-17T21:23:13.705Z,100286.44
2022-10-17T21:28:17.763Z,100284.78
2022-10-17T21:33:20.477Z,100278.13
2022-10-17T21:38:23.181Z,100274.38
2022-10-17T21:43:27.206Z,100272.88
2022-10-17T21:48:30.024Z,100285.53
2022-10-17T21:53:33.201Z,100285.53
2022-10-17T21:58:37.616Z,100290.91
2022-10-17T22:03:45.675Z,100289.03
2022-10-17T22:08:49.732Z,100286.09
2022-10-17T22:13:56.190Z,100303.97
2022-10-17T22:19:03.112Z,100306.84
2022-10-17T22:24:09.999Z,100304.78
2022-10-17T22:29:14.711Z,100306.84
2022-10-17T22:34:18.421Z,100318.66
2022-10-17T22:39:21.145Z,100317.00
2022-10-17T22:44:25.337Z,100318.66
2022-10-17T22:49:28.040Z,100319.88
2022-10-17T22:54:30.738Z,100315.06
2022-10-17T22:59:34.837Z,100311.53
2022-10-17T23:04:37.718Z,100313.00
2022-10-17T23:09:40.826Z,100314.06
2022-10-17T23:14:44.923Z,100310.72
2022-10-17T23:19:47.682Z,100302.63
2022-10-17T23:24:50.426Z,100302.63
2022-10-17T23:29:54.496Z,100306.34
2022-10-17T23:34:57.321Z,100306.34
2022-10-17T23:40:00.095Z,100306.72
2022-10-17T23:45:04.712Z,100314.16
2022-10-17T23:50:08.288Z,100304.25
2022-10-17T23:55:11.505Z,100306.72
